sensor_id;sensor_type;location;lat;lon;timestamp;pressure;altitude;pressure_sealevel;temperature;humidity
54948;BME280;41113;41.882;12.530;2023-10-13T00:00:55;101637.44;;;18.88;84.60
54948;BME280;41113;41.882;12.530;2023-10-13T00:03:22;101637.25;;;18.81;84.95
54948;BME280;41113;41.882;12.530;2023-10-13T00:05:47;101647.28;;;18.81;85.10
54948;BME280;41113;41.882;12.530;2023-10-13T00:08:17;101639.25;;;18.71;85.31
54948;BME280;41113;41.882;12.530;2023-10-13T00:10:42;101645.41;;;18.73;nan
54948;BME280;41113;41.882;12.530;2023-10-13T00:13:08;101647.09;;;18.74;84.94
54948;BME280;41113;41.882;12.530;2023-10-13T00:15:39;101641.72;;;18.90;84.60
54948;BME280;41113;41.882;12.530;2023-10-13T00:18:09;101646.78;;;18.85;83.97
54948;BME280;41113;41.882;12.530;2023-10-13T00:20:43;101650.50;;;18.76;84.23
54948;BME280;41113;41.882;12.530;2023-10-13T00:23:15;101644.91;;;18.86;83.89
54948;BME280;41113;41.882;12.530;2023-10-13T00:25:46;101640.34;;;18.86;82.90
54948;BME280;41113;41.882;12.530;2023-10-13T00:28:15;101641.31;;;18.77;82.84
54948;BME280;41113;41.882;12.530;2023-10-13T00:30:48;101638.91;;;18.66;83.18
54948;BME280;41113;41.882;12.530;2023-10-13T00:33:16;101643.50;;;18.65;83.11
54948;BME280;41113;41.882;12.530;2023-10-13T00:35:45;101641.25;;;18.61;83.20
54948;BME280;41113;41.882;12.530;2023-10-13T00:38:12;101635.06;;;18.51;83.08
54948;BME280;41113;41.882;12.530;2023-10-13T00:40:44;101636.59;;;18.45;83.33
54948;BME280;41113;41.882;12.530;2023-10-13T00:43:16;101631.66;;;18.49;83.22
54948;BME280;41113;41.882;12.530;2023-10-13T00:45:45;101637.81;;;18.51;82.80
54948;BME280;41113;41.882;12.530;2023-10-13T00:48:13;101625.38;;;18.48;82.81
54948;BME280;41113;41.882;12.530;2023-10-13T00:50:40;101621.81;;;18.48;82.41
54948;BME280;41113;41.882;12.530;2023-10-13T00:53:06;101617.38;;;18.47;82.23
54948;BME280;41113;41.882;12.530;2023-10-13T00:55:32;101624.19;;;18.51;82.15
54948;BME280;41113;41.882;12.530;2023-10-13T00:57:59;101624.34;;;18.41;82.22
54948;BME280;41113;41.882;12.530;2023-10-13T01:00:28;101617.88;;;18.42;81.90
54948;BME280;41113;41.882;12.530;2023-10-13T01:02:54;101624.88;;;18.45;81.84
54948;BME280;41113;41.882;12.530;2023-10-13T01:05:30;101625.19;;;18.42;81.61
54948;BME280;41113;41.882;12.530;2023-10-13T01:07:59;101614.25;;;18.25;81.36
54948;BME280;41113;41.882;12.530;2023-10-13T01:10:26;101617.19;;;18.32;81.43
54948;BME280;41113;41.882;12.530;2023-10-13T01:12:52;101618.19;;;18.31;81.32
54948;BME280;41113;41.882;12.530;2023-10-13T01:15:18;101619.72;;;18.33;80.94
54948;BME280;41113;41.882;12.530;2023-10-13T01:17:46;101613.97;;;18.45;80.88
54948;BME280;41113;41.882;12.530;2023-10-13T01:20:12;101618.34;;;18.63;80.03
54948;BME280;41113;41.882;12.530;2023-10-13T01:22:45;101613.06;;;18.70;79.58
54948;BME280;41113;41.882;12.530;2023-10-13T01:25:20;101615.13;;;18.68;79.39
54948;BME280;41113;41.882;12.530;2023-10-13T01:27:45;101623.22;;;18.60;79.32
54948;BME280;41113;41.882;12.530;2023-10-13T01:30:14;101614.75;;;18.63;78.94
54948;BME280;41113;41.882;12.530;2023-10-13T01:32:48;101616.47;;;18.72;78.61
54948;BME280;41113;41.882;12.530;2023-10-13T01:35:15;101612.34;;;18.60;78.28
54948;BME280;41113;41.882;12.530;2023-10-13T01:37:43;101618.13;;;18.57;78.22
54948;BME280;41113;41.882;12.530;2023-10-13T01:40:09;101620.47;;;18.52;78.23
54948;BME280;41113;41.882;12.530;2023-10-13T01:42:35;101617.06;;;18.50;78.28
54948;BME280;41113;41.882;12.530;2023-10-13T01:45:02;101614.84;;;18.45;78.64
54948;BME280;41113;41.882;12.530;2023-10-13T01:47:33;101615.00;;;18.52;78.30
54948;BME280;41113;41.882;12.530;2023-10-13T01:49:58;101620.16;;;18.55;78.22
54948;BME280;41113;41.882;12.530;2023-10-13T01:52:31;101623.22;;;18.60;78.05
54948;BME280;41113;41.882;12.530;2023-10-13T01:54:57;101623.56;;;18.57;77.96
54948;BME280;41113;41.882;12.530;2023-10-13T01:57:26;101614.38;;;18.58;77.63
54948;BME280;41113;41.882;12.530;2023-10-13T01:59:53;101611.72;;;18.66;77.58
54948;BME280;41113;41.882;12.530;2023-10-13T02:02:20;101613.41;;;18.67;77.19
54948;BME280;41113;41.882;12.530;2023-10-13T02:04:54;101607.63;;;18.70;76.65
54948;BME280;41113;41.882;12.530;2023-10-13T02:07:22;101610.16;;;18.63;76.75
54948;BME280;41113;41.882;12.530;2023-10-13T02:09:52;101620.03;;;18.64;76.41
54948;BME280;41113;41.882;12.530;2023-10-13T02:12:19;101613.75;;;18.64;76.34
54948;BME280;41113;41.882;12.530;2023-10-13T02:14:50;101613.00;;;18.54;76.81
54948;BME280;41113;41.882;12.530;2023-10-13T02:17:15;101613.66;;;18.48;77.20
54948;BME280;41113;41.882;12.530;2023-10-13T02:19:41;101619.78;;;18.50;76.93
54948;BME280;41113;41.882;12.530;2023-10-13T02:22:10;101619.78;;;18.50;76.62
54948;BME280;41113;41.882;12.530;2023-10-13T02:24:36;101613.13;;;18.44;77.11
54948;BME280;41113;41.882;12.530;2023-10-13T02:27:06;101612.63;;;18.49;76.30
54948;BME280;41113;41.882;12.530;2023-10-13T02:29:38;101620.78;;;18.41;75.79
54948;BME280;41113;41.882;12.530;2023-10-13T02:32:04;101619.03;;;18.31;75.76
54948;BME280;41113;41.882;12.530;2023-10-13T02:34:30;101627.56;;;18.37;75.22
54948;BME280;41113;41.882;12.530;2023-10-13T02:36:56;101628.88;;;18.24;75.33
54948;BME280;41113;41.882;12.530;2023-10-13T02:39:21;101633.25;;;18.17;75.85
54948;BME280;41113;41.882;12.530;2023-10-13T02:41:55;101640.19;;;18.12;76.07
54948;BME280;41113;41.882;12.530;2023-10-13T02:44:21;101626.06;;;18.08;76.21
54948;BME280;41113;41.882;12.530;2023-10-13T02:46:55;101625.72;;;18.03;76.35
54948;BME280;41113;41.882;12.530;2023-10-13T02:49:21;101625.72;;;18.03;76.55
54948;BME280;41113;41.882;12.530;2023-10-13T02:51:47;101624.00;;;18.02;76.21
54948;BME280;41113;41.882;12.530;2023-10-13T02:54:12;101620.16;;;17.87;76.90
54948;BME280;41113;41.882;12.530;2023-10-13T02:56:43;101620.81;;;17.81;77.23
54948;BME280;41113;41.882;12.530;2023-10-13T02:59:34;101617.09;;;17.82;77.20
54948;BME280;41113;41.882;12.530;2023-10-13T03:02:08;101617.09;;;17.82;77.06
54948;BME280;41113;41.882;12.530;2023-10-13T03:04:44;101614.19;;;17.83;77.14
54948;BME280;41113;41.882;12.530;2023-10-13T03:07:09;101605.97;;;17.93;76.99
54948;BME280;41113;41.882;12.530;2023-10-13T03:09:34;101607.66;;;17.94;76.95
54948;BME280;41113;41.882;12.530;2023-10-13T03:12:02;101609.28;;;17.87;77.00
54948;BME280;41113;41.882;12.530;2023-10-13T03:14:28;101603.69;;;17.88;77.16
54948;BME280;41113;41.882;12.530;2023-10-13T03:16:57;101609.09;;;17.80;76.88
54948;BME280;41113;41.882;12.530;2023-10-13T03:19:45;101608.25;;;17.80;76.71
54948;BME280;41113;41.882;12.530;2023-10-13T03:22:16;101614.72;;;17.87;76.44
54948;BME280;41113;41.882;12.530;2023-10-13T03:24:43;101610.16;;;17.87;76.45
54948;BME280;41113;41.882;12.530;2023-10-13T03:27:15;101613.69;;;17.80;76.12
54948;BME280;41113;41.882;12.530;2023-10-13T03:29:48;101614.00;;;17.77;76.28
54948;BME280;41113;41.882;12.530;2023-10-13T03:32:19;101613.69;;;17.80;76.15
54948;BME280;41113;41.882;12.530;2023-10-13T03:34:45;101610.06;;;17.71;76.60
54948;BME280;41113;41.882;12.530;2023-10-13T03:37:18;101615.34;;;17.72;75.94
54948;BME280;41113;41.882;12.530;2023-10-13T03:39:49;101621.47;;;17.75;75.63
54948;BME280;41113;41.882;12.530;2023-10-13T03:42:16;101625.84;;;17.67;75.19
54948;BME280;41113;41.882;12.530;2023-10-13T03:44:46;101625.91;;;17.58;74.83
54948;BME280;41113;41.882;12.530;2023-10-13T03:47:12;101624.06;;;17.58;74.88
54948;BME280;41113;41.882;12.530;2023-10-13T03:49:54;101625.06;;;17.57;74.50
54948;BME280;41113;41.882;12.530;2023-10-13T03:52:39;101632.44;;;17.47;73.36
54948;BME280;41113;41.882;12.530;2023-10-13T03:55:05;101625.34;;;17.54;73.15
54948;BME280;41113;41.882;12.530;2023-10-13T03:57:31;101625.91;;;17.58;72.54
54948;BME280;41113;41.882;12.530;2023-10-13T04:00:03;101625.13;;;17.48;72.78
54948;BME280;41113;41.882;12.530;2023-10-13T04:02:33;101626.69;;;17.50;72.52
54948;BME280;41113;41.882;12.530;2023-10-13T04:04:59;101623.97;;;17.50;71.96
54948;BME280;41113;41.882;12.530;2023-10-13T04:07:32;101626.75;;;17.58;71.97
54948;BME280;41113;41.882;12.530;2023-10-13T04:09:57;101627.47;;;17.42;71.75
54948;BME280;41113;41.882;12.530;2023-10-13T04:12:41;101628.34;;;17.43;71.72
54948;BME280;41113;41.882;12.530;2023-10-13T04:15:25;101628.66;;;17.40;71.69
54948;BME280;41113;41.882;12.530;2023-10-13T04:18:02;101624.22;;;17.39;71.64
54948;BME280;41113;41.882;12.530;2023-10-13T04:20:39;101622.91;;;17.43;71.60
54948;BME280;41113;41.882;12.530;2023-10-13T04:23:04;101621.63;;;17.55;71.42
54948;BME280;41113;41.882;12.530;2023-10-13T04:25:43;101616.28;;;17.63;70.50
54948;BME280;41113;41.882;12.530;2023-10-13T04:28:12;101625.66;;;17.51;70.67
54948;BME280;41113;41.882;12.530;2023-10-13T04:30:41;101618.22;;;17.53;70.74
54948;BME280;41113;41.882;12.530;2023-10-13T04:33:12;101626.06;;;17.56;70.72
54948;BME280;41113;41.882;12.530;2023-10-13T04:38:26;101635.16;;;17.47;70.90
54948;BME280;41113;41.882;12.530;2023-10-13T04:40:59;101633.75;;;17.43;70.51
54948;BME280;41113;41.882;12.530;2023-10-13T04:43:26;101637.50;;;17.42;70.27
54948;BME280;41113;41.882;12.530;2023-10-13T04:45:59;101640.47;;;17.31;70.71
54948;BME280;41113;41.882;12.530;2023-10-13T04:48:39;101636.75;;;17.32;71.22
54948;BME280;41113;41.882;12.530;2023-10-13T04:51:04;101640.78;;;17.28;71.63
54948;BME280;41113;41.882;12.530;2023-10-13T04:54:08;101643.09;;;17.23;72.10
54948;BME280;41113;41.882;12.530;2023-10-13T04:56:50;101649.47;;;17.14;72.51
54948;BME280;41113;41.882;12.530;2023-10-13T04:59:38;101651.78;;;17.08;72.96
54948;BME280;41113;41.882;12.530;2023-10-13T05:02:23;101664.81;;;17.23;72.34
54948;BME280;41113;41.882;12.530;2023-10-13T05:05:01;101659.63;;;17.29;71.79
54948;BME280;41113;41.882;12.530;2023-10-13T05:07:39;101657.38;;;17.25;71.49
54948;BME280;41113;41.882;12.530;2023-10-13T05:10:23;101656.91;;;17.11;71.72
54948;BME280;41113;41.882;12.530;2023-10-13T05:13:07;101655.50;;;17.07;71.51
54948;BME280;41113;41.882;12.530;2023-10-13T05:15:51;101658.38;;;17.06;71.95
54948;BME280;41113;41.882;12.530;2023-10-13T05:18:35;101651.84;;;17.17;71.66
54948;BME280;41113;41.882;12.530;2023-10-13T05:21:19;101661.16;;;17.14;71.74
54948;BME280;41113;41.882;12.530;2023-10-13T05:24:03;101660.00;;;17.17;71.69
54948;BME280;41113;41.882;12.530;2023-10-13T05:26:47;101667.13;;;17.18;71.40
54948;BME280;41113;41.882;12.530;2023-10-13T05:29:31;101666.44;;;17.16;71.40
54948;BME280;41113;41.882;12.530;2023-10-13T05:32:15;101679.09;;;17.25;70.83
54948;BME280;41113;41.882;12.530;2023-10-13T05:34:59;101672.81;;;17.24;70.99
54948;BME280;41113;41.882;12.530;2023-10-13T05:37:43;101678.84;;;17.36;70.52
54948;BME280;41113;41.882;12.530;2023-10-13T05:40:27;101679.22;;;17.23;70.88
54948;BME280;41113;41.882;12.530;2023-10-13T05:43:11;101676.59;;;17.14;71.27
54948;BME280;41113;41.882;12.530;2023-10-13T05:46:02;101691.66;;;17.08;71.81
54948;BME280;41113;41.882;12.530;2023-10-13T05:48:47;101703.59;;;17.15;71.07
54948;BME280;41113;41.882;12.530;2023-10-13T05:51:30;101709.97;;;17.24;70.39
54948;BME280;41113;41.882;12.530;2023-10-13T05:54:05;101706.88;;;17.36;70.39
54948;BME280;41113;41.882;12.530;2023-10-13T05:56:39;101715.16;;;17.35;70.02
54948;BME280;41113;41.882;12.530;2023-10-13T05:59:23;101723.31;;;17.35;70.54
54948;BME280;41113;41.882;12.530;2023-10-13T06:02:07;101724.78;;;17.47;70.32
54948;BME280;41113;41.882;12.530;2023-10-13T06:04:51;101731.84;;;17.58;70.08
54948;BME280;41113;41.882;12.530;2023-10-13T06:07:35;101735.91;;;17.71;70.82
54948;BME280;41113;41.882;12.530;2023-10-13T06:10:19;101736.59;;;17.73;71.46
54948;BME280;41113;41.882;12.530;2023-10-13T06:13:03;101739.38;;;17.82;71.92
54948;BME280;41113;41.882;12.530;2023-10-13T06:15:47;101741.91;;;18.01;72.20
54948;BME280;41113;41.882;12.530;2023-10-13T06:18:31;101744.72;;;18.17;71.88
54948;BME280;41113;41.882;12.530;2023-10-13T06:21:15;101741.38;;;18.23;72.05
54948;BME280;41113;41.882;12.530;2023-10-13T06:23:58;101742.00;;;18.17;72.40
54948;BME280;41113;41.882;12.530;2023-10-13T06:26:42;101751.88;;;18.18;72.60
54948;BME280;41113;41.882;12.530;2023-10-13T06:29:26;101758.22;;;18.27;73.13
54948;BME280;41113;41.882;12.530;2023-10-13T06:31:51;101760.44;;;18.57;72.22
54948;BME280;41113;41.882;12.530;2023-10-13T06:34:17;101769.47;;;18.58;72.36
54948;BME280;41113;41.882;12.530;2023-10-13T06:36:45;101769.00;;;18.62;72.09
54948;BME280;41113;41.882;12.530;2023-10-13T06:39:12;101757.97;;;18.72;72.10
54948;BME280;41113;41.882;12.530;2023-10-13T06:41:59;101756.25;;;18.63;72.48
54948;BME280;41113;41.882;12.530;2023-10-13T06:44:24;101757.91;;;18.56;72.77
54948;BME280;41113;41.882;12.530;2023-10-13T06:46:50;101767.81;;;18.65;72.28
54948;BME280;41113;41.882;12.530;2023-10-13T06:49:15;101758.66;;;18.66;73.26
54948;BME280;41113;41.882;12.530;2023-10-13T06:51:43;101764.81;;;18.76;73.07
54948;BME280;41113;41.882;12.530;2023-10-13T06:54:08;101755.84;;;18.58;73.27
54948;BME280;41113;41.882;12.530;2023-10-13T06:56:36;101766.22;;;18.54;73.72
54948;BME280;41113;41.882;12.530;2023-10-13T06:59:04;101763.44;;;18.72;73.26
54948;BME280;41113;41.882;12.530;2023-10-13T07:01:31;101771.69;;;18.88;72.90
54948;BME280;41113;41.882;12.530;2023-10-13T07:04:03;101770.44;;;18.83;73.47
54948;BME280;41113;41.882;12.530;2023-10-13T07:06:29;101778.22;;;18.70;74.42
54948;BME280;41113;41.882;12.530;2023-10-13T07:08:56;101774.50;;;18.79;74.00
54948;BME280;41113;41.882;12.530;2023-10-13T07:11:25;101774.41;;;18.88;73.64
54948;BME280;41113;41.882;12.530;2023-10-13T07:14:03;101776.63;;;18.93;73.62
54948;BME280;41113;41.882;12.530;2023-10-13T07:16:55;101776.13;;;18.98;74.12
54948;BME280;41113;41.882;12.530;2023-10-13T07:19:23;101771.75;;;19.13;73.57
54948;BME280;41113;41.882;12.530;2023-10-13T07:21:50;101771.56;;;19.06;73.98
54948;BME280;41113;41.882;12.530;2023-10-13T07:24:23;101781.94;;;19.11;74.19
54948;BME280;41113;41.882;12.530;2023-10-13T07:26:49;101788.47;;;19.26;73.49
54948;BME280;41113;41.882;12.530;2023-10-13T07:29:26;101787.81;;;19.24;73.71
54948;BME280;41113;41.882;12.530;2023-10-13T07:31:52;101783.72;;;19.20;74.39
54948;BME280;41113;41.882;12.530;2023-10-13T07:34:17;101776.56;;;19.35;73.98
54948;BME280;41113;41.882;12.530;2023-10-13T07:36:53;101776.59;;;19.43;73.75
54948;BME280;41113;41.882;12.530;2023-10-13T07:39:24;101783.78;;;19.52;73.20
54948;BME280;41113;41.882;12.530;2023-10-13T07:41:50;101778.53;;;19.75;72.79
54948;BME280;41113;41.882;12.530;2023-10-13T07:44:32;101789.25;;;19.69;72.89
54948;BME280;41113;41.882;12.530;2023-10-13T07:46:58;101786.53;;;19.61;72.85
54948;BME280;41113;41.882;12.530;2023-10-13T07:49:31;101785.50;;;19.53;72.69
54948;BME280;41113;41.882;12.530;2023-10-13T07:52:00;101790.63;;;19.73;71.85
54948;BME280;41113;41.882;12.530;2023-10-13T07:54:41;101782.78;;;19.78;71.19
54948;BME280;41113;41.882;12.530;2023-10-13T07:57:09;101788.94;;;19.72;72.08
54948;BME280;41113;41.882;12.530;2023-10-13T07:59:34;101779.91;;;19.79;71.66
54948;BME280;41113;41.882;12.530;2023-10-13T08:02:00;101785.19;;;19.89;70.74
54948;BME280;41113;41.882;12.530;2023-10-13T08:04:37;101776.66;;;20.16;70.02
54948;BME280;41113;41.882;12.530;2023-10-13T08:07:02;101781.22;;;20.32;69.21
54948;BME280;41113;41.882;12.530;2023-10-13T08:09:38;101774.94;;;20.32;68.71
54948;BME280;41113;41.882;12.530;2023-10-13T08:12:06;101779.53;;;20.31;69.09
54948;BME280;41113;41.882;12.530;2023-10-13T08:14:36;101782.94;;;20.33;69.13
54948;BME280;41113;41.882;12.530;2023-10-13T08:17:03;101781.38;;;20.39;69.49
54948;BME280;41113;41.882;12.530;2023-10-13T08:19:32;101785.50;;;20.51;68.42
54948;BME280;41113;41.882;12.530;2023-10-13T08:22:10;101785.16;;;20.54;69.17
54948;BME280;41113;41.882;12.530;2023-10-13T08:24:45;101785.44;;;20.67;68.93
54948;BME280;41113;41.882;12.530;2023-10-13T08:27:10;101785.41;;;20.84;68.92
54948;BME280;41113;41.882;12.530;2023-10-13T08:29:54;101780.75;;;20.92;68.53
54948;BME280;41113;41.882;12.530;2023-10-13T08:32:22;101779.13;;;21.06;69.09
54948;BME280;41113;41.882;12.530;2023-10-13T08:34:57;101785.94;;;21.10;68.88
54948;BME280;41113;41.882;12.530;2023-10-13T08:37:22;101792.06;;;21.20;68.41
54948;BME280;41113;41.882;12.530;2023-10-13T08:39:54;101786.59;;;21.20;68.96
54948;BME280;41113;41.882;12.530;2023-10-13T08:42:24;101785.91;;;21.26;69.36
54948;BME280;41113;41.882;12.530;2023-10-13T08:44:59;101784.09;;;21.41;68.91
54948;BME280;41113;41.882;12.530;2023-10-13T08:47:29;101779.38;;;21.58;68.29
54948;BME280;41113;41.882;12.530;2023-10-13T08:50:03;101772.06;;;21.73;68.17
54948;BME280;41113;41.882;12.530;2023-10-13T08:52:48;101772.13;;;21.88;68.12
54948;BME280;41113;41.882;12.530;2023-10-13T08:55:14;101775.91;;;21.87;68.58
54948;BME280;41113;41.882;12.530;2023-10-13T08:58:00;101780.94;;;21.98;68.45
54948;BME280;41113;41.882;12.530;2023-10-13T09:00:39;101772.91;;;22.20;68.11
54948;BME280;41113;41.882;12.530;2023-10-13T09:03:20;101779.84;;;22.45;67.53
54948;BME280;41113;41.882;12.530;2023-10-13T09:05:53;101775.69;;;22.64;67.05
54948;BME280;41113;41.882;12.530;2023-10-13T09:08:31;101774.50;;;22.81;66.43
54948;BME280;41113;41.882;12.530;2023-10-13T09:11:22;101779.56;;;22.99;66.38
54948;BME280;41113;41.882;12.530;2023-10-13T09:13:52;101780.41;;;23.14;66.20
54948;BME280;41113;41.882;12.530;2023-10-13T09:16:17;101781.44;;;23.13;66.62
54948;BME280;41113;41.882;12.530;2023-10-13T09:19:01;101779.09;;;23.32;66.11
54948;BME280;41113;41.882;12.530;2023-10-13T09:21:26;101785.59;;;23.45;65.79
54948;BME280;41113;41.882;12.530;2023-10-13T09:24:08;101782.28;;;23.50;65.37
54948;BME280;41113;41.882;12.530;2023-10-13T09:26:54;101779.44;;;23.58;65.70
54948;BME280;41113;41.882;12.530;2023-10-13T09:29:21;101780.75;;;23.62;65.27
54948;BME280;41113;41.882;12.530;2023-10-13T09:31:47;101783.34;;;23.70;65.24
54948;BME280;41113;41.882;12.530;2023-10-13T09:34:22;101788.31;;;23.81;64.92
54948;BME280;41113;41.882;12.530;2023-10-13T09:36:48;101782.75;;;23.96;64.56
54948;BME280;41113;41.882;12.530;2023-10-13T09:39:20;101776.16;;;24.12;64.29
54948;BME280;41113;41.882;12.530;2023-10-13T09:41:58;101773.25;;;24.20;64.27
54948;BME280;41113;41.882;12.530;2023-10-13T09:44:24;101776.63;;;24.22;63.62
54948;BME280;41113;41.882;12.530;2023-10-13T09:46:55;101777.88;;;24.19;63.85
54948;BME280;41113;41.882;12.530;2023-10-13T09:49:28;101779.09;;;24.10;64.24
54948;BME280;41113;41.882;12.530;2023-10-13T09:52:10;101768.84;;;23.98;64.08
54948;BME280;41113;41.882;12.530;2023-10-13T09:54:41;101771.56;;;23.98;64.76
54948;BME280;41113;41.882;12.530;2023-10-13T09:57:13;101776.53;;;24.09;64.81
54948;BME280;41113;41.882;12.530;2023-10-13T09:59:45;101773.59;;;24.10;64.31
54948;BME280;41113;41.882;12.530;2023-10-13T10:02:17;101770.66;;;24.12;64.16
54948;BME280;41113;41.882;12.530;2023-10-13T10:04:51;101772.28;;;24.06;64.40
54948;BME280;41113;41.882;12.530;2023-10-13T10:07:25;101770.56;;;24.05;64.58
54948;BME280;41113;41.882;12.530;2023-10-13T10:09:57;101765.78;;;24.07;64.03
54948;BME280;41113;41.882;12.530;2023-10-13T10:17:59;101756.81;;;24.27;63.70
54948;BME280;41113;41.882;12.530;2023-10-13T10:20:32;101756.88;;;24.33;63.57
54948;BME280;41113;41.882;12.530;2023-10-13T10:23:04;101757.41;;;24.43;63.29
54948;BME280;41113;41.882;12.530;2023-10-13T10:25:30;101764.19;;;24.47;63.36
54948;BME280;41113;41.882;12.530;2023-10-13T10:28:06;101755.78;;;24.56;62.96
54948;BME280;41113;41.882;12.530;2023-10-13T10:30:36;101751.56;;;24.60;62.70
54948;BME280;41113;41.882;12.530;2023-10-13T10:33:03;101759.16;;;24.58;61.87
54948;BME280;41113;41.882;12.530;2023-10-13T10:35:33;101750.28;;;24.56;61.62
54948;BME280;41113;41.882;12.530;2023-10-13T10:38:15;101747.78;;;24.61;61.45
54948;BME280;41113;41.882;12.530;2023-10-13T10:43:50;101747.97;;;24.59;61.13
54948;BME280;41113;41.882;12.530;2023-10-13T10:46:17;101744.41;;;24.65;61.43
54948;BME280;41113;41.882;12.530;2023-10-13T10:48:45;101741.97;;;24.77;61.92
54948;BME280;41113;41.882;12.530;2023-10-13T10:51:14;101738.19;;;24.85;61.43
54948;BME280;41113;41.882;12.530;2023-10-13T10:53:58;101740.31;;;24.89;61.06
54948;BME280;41113;41.882;12.530;2023-10-13T10:56:36;101732.94;;;24.96;60.52
54948;BME280;41113;41.882;12.530;2023-10-13T10:59:02;101724.47;;;24.91;59.85
54948;BME280;41113;41.882;12.530;2023-10-13T11:01:32;101720.66;;;24.92;60.12
54948;BME280;41113;41.882;12.530;2023-10-13T11:09:12;101717.19;;;25.11;59.56
54948;BME280;41113;41.882;12.530;2023-10-13T11:11:46;101710.19;;;25.16;59.84
54948;BME280;41113;41.882;12.530;2023-10-13T11:14:24;101699.00;;;25.17;58.61
54948;BME280;41113;41.882;12.530;2023-10-13T11:16:49;101702.56;;;25.04;58.39
54948;BME280;41113;41.882;12.530;2023-10-13T11:19:35;101702.31;;;24.99;59.31
54948;BME280;41113;41.882;12.530;2023-10-13T11:22:10;101694.44;;;24.96;59.67
54948;BME280;41113;41.882;12.530;2023-10-13T11:24:41;101693.00;;;25.00;60.70
54948;BME280;41113;41.882;12.530;2023-10-13T11:27:14;101683.06;;;24.99;58.31
54948;BME280;41113;41.882;12.530;2023-10-13T11:29:41;101689.63;;;24.98;58.94
54948;BME280;41113;41.882;12.530;2023-10-13T11:32:06;101686.72;;;25.06;58.75
54948;BME280;41113;41.882;12.530;2023-10-13T11:34:31;101680.81;;;25.09;58.81
54948;BME280;41113;41.882;12.530;2023-10-13T11:37:05;101685.25;;;25.10;57.27
54948;BME280;41113;41.882;12.530;2023-10-13T11:39:50;101679.53;;;25.12;57.23
54948;BME280;41113;41.882;12.530;2023-10-13T11:42:16;101672.34;;;25.18;57.28
54948;BME280;41113;41.882;12.530;2023-10-13T11:44:42;101672.34;;;25.18;55.88
54948;BME280;41113;41.882;12.530;2023-10-13T11:47:08;101665.16;;;25.17;55.75
54948;BME280;41113;41.882;12.530;2023-10-13T11:49:53;101664.75;;;25.20;55.84
54948;BME280;41113;41.882;12.530;2023-10-13T11:52:23;101671.09;;;25.27;57.45
54948;BME280;41113;41.882;12.530;2023-10-13T11:54:51;101671.72;;;25.29;58.66
54948;BME280;41113;41.882;12.530;2023-10-13T11:57:16;101665.38;;;25.28;58.36
54948;BME280;41113;41.882;12.530;2023-10-13T11:59:44;101657.13;;;25.28;58.99
54948;BME280;41113;41.882;12.530;2023-10-13T12:02:11;101659.88;;;25.22;58.73
54948;BME280;41113;41.882;12.530;2023-10-13T12:04:52;101653.53;;;25.15;58.94
54948;BME280;41113;41.882;12.530;2023-10-13T12:07:19;101654.59;;;25.13;59.03
54948;BME280;41113;41.882;12.530;2023-10-13T12:09:45;101648.44;;;25.11;58.87
54948;BME280;41113;41.882;12.530;2023-10-13T12:12:20;101645.06;;;25.09;59.31
54948;BME280;41113;41.882;12.530;2023-10-13T12:14:45;101638.94;;;25.14;58.83
54948;BME280;41113;41.882;12.530;2023-10-13T12:17:27;101637.25;;;25.20;59.17
54948;BME280;41113;41.882;12.530;2023-10-13T12:19:56;101631.31;;;25.23;58.80
54948;BME280;41113;41.882;12.530;2023-10-13T12:22:22;101635.56;;;25.25;58.76
54948;BME280;41113;41.882;12.530;2023-10-13T12:25:10;101633.22;;;25.29;59.19
54948;BME280;41113;41.882;12.530;2023-10-13T12:28:09;101623.28;;;25.28;58.71
54948;BME280;41113;41.882;12.530;2023-10-13T12:30:43;101632.38;;;25.35;58.23
54948;BME280;41113;41.882;12.530;2023-10-13T12:33:15;101622.44;;;25.34;57.94
54948;BME280;41113;41.882;12.530;2023-10-13T12:35:48;101618.22;;;25.31;58.53
54948;BME280;41113;41.882;12.530;2023-10-13T12:38:40;101616.94;;;25.34;58.56
54948;BME280;41113;41.882;12.530;2023-10-13T12:41:12;101615.66;;;25.36;58.48
54948;BME280;41113;41.882;12.530;2023-10-13T12:43:56;101605.13;;;25.40;58.86
54948;BME280;41113;41.882;12.530;2023-10-13T12:46:40;101613.38;;;25.40;59.15
54948;BME280;41113;41.882;12.530;2023-10-13T12:49:24;101612.94;;;25.43;59.15
54948;BME280;41113;41.882;12.530;2023-10-13T12:52:07;101607.66;;;25.48;59.52
54948;BME280;41113;41.882;12.530;2023-10-13T12:54:47;101602.56;;;25.45;59.47
54948;BME280;41113;41.882;12.530;2023-10-13T12:57:24;101600.22;;;25.35;60.41
54948;BME280;41113;41.882;12.530;2023-10-13T12:59:50;101603.81;;;25.36;60.76
54948;BME280;41113;41.882;12.530;2023-10-13T13:02:24;101603.44;;;25.39;60.96
54948;BME280;41113;41.882;12.530;2023-10-13T13:04:53;101601.09;;;25.42;60.51
54948;BME280;41113;41.882;12.530;2023-10-13T13:07:27;101598.75;;;25.46;60.54
54948;BME280;41113;41.882;12.530;2023-10-13T13:09:56;101604.69;;;25.43;60.83
54948;BME280;41113;41.882;12.530;2023-10-13T13:12:25;101599.81;;;25.45;61.55
54948;BME280;41113;41.882;12.530;2023-10-13T13:14:50;101606.59;;;25.49;61.53
54948;BME280;41113;41.882;12.530;2023-10-13T13:17:20;101599.41;;;25.48;61.64
54948;BME280;41113;41.882;12.530;2023-10-13T13:19:45;101593.06;;;25.48;61.81
54948;BME280;41113;41.882;12.530;2023-10-13T13:22:10;101600.88;;;25.44;62.39
54948;BME280;41113;41.882;12.530;2023-10-13T13:24:39;101586.50;;;25.42;62.43